Dalton, Indiana
Current Conditions -  °F | °C
As of 7:53 PM on Saturday 25 Oct 2014 (Local Time) from KMIE Reporting Station
Clear Clear  
Wind Chill: 63°   Ceiling: Unl
Heat Index: 63°   Visibility: 10mi
Dew Point: 47°   Wind: 7mph
Humidity: 56%   Direction: 260°W
Pressure: 29.89"   Gusts: NA
Location:  39.9342°N, 85.1531°W
Report Text: KMIE 252353Z 26006KT 10SM CLR 17/08 A2989 RMK AO2 SLP117 60000 T01720083 10244 20172 58001
Loading
Personal Weather Stations






























Interactive Weather Map New forecast layout! Learn more

10-Day Weather Forecast

Advertisements
Track Severe Weather on mobile